Time;durP1;ratioP1;P1;durP2;ratioP2;P2;SDS_P1;SDS_P2;PMS_P1;PMS_P2;Temp;Humidity;BMP_temperature;BMP_pressure;BME280_temperature;BME280_humidity;BME280_pressure;Samples;Min_cycle;Max_cycle;Signal;HPM_P1;HPM_P2
2023/01/26 00:01:43;;;;;;;51.63;30.90;;;4.80;99.90;;;3.78;100.00;102280.66;4153410;28;20084;-77
2023/01/26 00:03:45;;;;;;;51.00;32.45;;;4.80;99.90;;;3.73;100.00;102280.06;4153357;28;20022;-77
2023/01/26 00:05:46;;;;;;;49.40;30.48;;;4.80;99.90;;;3.69;100.00;102273.28;4153061;28;20450;-77
2023/01/26 00:07:46;;;;;;;51.78;30.75;;;4.80;99.90;;;3.72;100.00;102279.22;4159037;28;20045;-76
2023/01/26 00:09:47;;;;;;;51.95;29.83;;;4.80;99.90;;;3.67;100.00;102267.31;4153322;28;20084;-77
2023/01/26 00:11:48;;;;;;;50.35;30.48;;;4.80;99.90;;;3.72;100.00;102267.91;4152179;28;20021;-77
2023/01/26 00:13:50;;;;;;;49.55;30.27;;;4.80;99.90;;;3.69;100.00;102268.06;4151722;28;20533;-77
2023/01/26 00:15:51;;;;;;;48.15;28.63;;;4.80;99.90;;;3.73;100.00;102267.00;4153367;28;20022;-77
2023/01/26 00:17:52;;;;;;;48.40;31.23;;;4.80;99.90;;;3.70;100.00;102261.94;4156141;28;20529;-77
2023/01/26 00:19:55;;;;;;;48.97;30.52;;;4.80;99.90;;;3.67;100.00;102255.09;4153134;28;20408;-77
2023/01/26 00:21:55;;;;;;;46.75;30.00;;;4.80;99.90;;;3.69;100.00;102255.00;4151828;28;20529;-77
2023/01/26 00:23:58;;;;;;;52.65;30.10;;;4.80;99.90;;;3.70;100.00;102247.09;4152408;28;20080;-77
2023/01/26 00:26:00;;;;;;;48.35;30.92;;;4.70;99.90;;;3.71;100.00;102242.72;4144288;28;20037;-77
2023/01/26 00:28:01;;;;;;;48.83;30.20;;;4.80;99.90;;;3.70;100.00;102233.22;4153815;28;20148;-77
2023/01/26 00:30:02;;;;;;;55.47;30.73;;;4.80;99.90;;;3.67;100.00;102225.56;4151451;28;20473;-77
2023/01/26 00:32:03;;;;;;;50.78;29.70;;;4.80;99.90;;;3.72;100.00;102220.94;4151868;28;20022;-77
2023/01/26 00:34:04;;;;;;;41.55;26.90;;;4.80;99.90;;;3.72;100.00;102213.97;4151788;28;20076;-77
2023/01/26 00:36:05;;;;;;;41.45;26.55;;;4.80;99.90;;;3.74;100.00;102216.47;4151712;28;20026;-77
2023/01/26 00:38:07;;;;;;;40.55;26.95;;;4.80;99.90;;;3.71;100.00;102209.66;4166023;28;20029;-77
2023/01/26 00:40:09;;;;;;;40.63;25.80;;;4.80;99.90;;;3.71;100.00;102206.19;4151903;28;20420;-77
2023/01/26 00:42:12;;;;;;;42.25;26.67;;;4.80;99.90;;;3.74;100.00;102213.88;4135302;28;20121;-77
2023/01/26 00:44:13;;;;;;;39.22;25.23;;;4.80;99.90;;;3.70;100.00;102199.31;4152619;28;20080;-77
2023/01/26 00:46:14;;;;;;;38.10;23.80;;;4.80;99.90;;;3.71;100.00;102196.59;4152791;28;20017;-77
2023/01/26 00:48:15;;;;;;;38.97;24.38;;;4.80;99.90;;;3.73;100.00;102196.53;4152613;28;20036;-77
2023/01/26 00:50:16;;;;;;;43.40;25.33;;;4.80;99.90;;;3.71;100.00;102186.16;4152722;28;20030;-77
2023/01/26 00:52:17;;;;;;;39.80;25.02;;;4.80;99.90;;;3.73;100.00;102183.50;4151534;28;20035;-77
2023/01/26 00:54:18;;;;;;;38.35;23.73;;;4.80;99.90;;;3.75;100.00;102187.72;4152464;28;20026;-77
2023/01/26 00:56:19;;;;;;;35.92;23.63;;;4.80;99.90;;;3.72;100.00;102168.75;4152772;28;20030;-77
2023/01/26 00:58:19;;;;;;;37.97;24.58;;;4.80;99.90;;;3.75;100.00;102164.22;4151256;28;20481;-77
2023/01/26 01:00:21;;;;;;;35.35;22.45;;;4.80;99.90;;;3.77;100.00;102164.97;4152583;28;20037;-77
2023/01/26 01:02:21;;;;;;;35.25;23.20;;;4.80;99.90;;;3.76;100.00;102162.47;4152459;28;20096;-77
2023/01/26 01:04:22;;;;;;;37.80;22.10;;;4.90;99.90;;;3.82;100.00;102156.94;4151355;28;20030;-77
2023/01/26 01:06:23;;;;;;;40.47;25.15;;;4.90;99.90;;;3.82;100.00;102159.53;4155857;28;20025;-77
2023/01/26 01:08:24;;;;;;;32.92;21.70;;;4.90;99.90;;;3.80;100.00;102153.53;4159362;28;20490;-77
2023/01/26 01:10:28;;;;;;;36.53;23.63;;;4.90;99.90;;;3.83;100.00;102153.38;4151106;28;20025;-77
2023/01/26 01:12:29;;;;;;;34.60;23.02;;;4.90;99.90;;;3.84;100.00;102152.47;4154909;28;20022;-77
2023/01/26 01:14:30;;;;;;;34.53;22.90;;;4.90;99.90;;;3.82;100.00;102151.72;4151904;28;20030;-77
2023/01/26 01:16:30;;;;;;;35.92;23.58;;;4.90;99.90;;;3.78;100.00;102137.13;4151090;28;20053;-77
2023/01/26 01:18:31;;;;;;;31.33;21.27;;;4.90;99.90;;;3.83;100.00;102148.16;4151227;28;20459;-77
2023/01/26 01:20:32;;;;;;;35.08;21.33;;;4.90;99.90;;;3.85;100.00;102143.72;4152258;28;20030;-77
2023/01/26 01:22:35;;;;;;;35.38;21.58;;;4.90;99.90;;;3.83;100.00;102133.34;4150901;28;20456;-77
2023/01/26 01:24:36;;;;;;;29.77;19.90;;;4.90;99.90;;;3.86;100.00;102127.13;4152108;28;20034;-77
2023/01/26 01:26:38;;;;;;;33.03;21.55;;;4.90;99.90;;;3.85;100.00;102115.03;4140873;28;20108;-77
2023/01/26 01:28:41;;;;;;;36.22;23.77;;;4.90;99.90;;;3.87;100.00;102119.22;4135049;28;20041;-77
2023/01/26 01:30:42;;;;;;;35.72;22.55;;;4.90;99.90;;;3.89;100.00;102121.75;4140533;28;20026;-77
2023/01/26 01:32:43;;;;;;;33.78;21.83;;;4.90;99.90;;;3.87;100.00;102102.72;4152279;28;20033;-77
2023/01/26 01:34:48;;;;;;;33.78;22.08;;;4.90;99.90;;;3.91;100.00;102125.13;4152603;28;20030;-77
2023/01/26 01:36:49;;;;;;;34.13;22.92;;;5.00;99.90;;;3.85;100.00;102105.41;4158856;28;20042;-77
2023/01/26 01:38:50;;;;;;;29.35;19.88;;;5.00;99.90;;;3.88;100.00;102104.41;4155632;28;20022;-77
2023/01/26 01:40:52;;;;;;;34.00;22.90;;;5.00;99.90;;;3.90;100.00;102107.78;4154435;28;20034;-77
2023/01/26 01:42:52;;;;;;;31.83;21.73;;;5.00;99.90;;;3.91;100.00;102109.47;4154319;28;20076;-77
2023/01/26 01:45:24;;;;;;;33.05;22.00;;;5.00;99.90;;;3.94;100.00;102114.53;4153937;28;20034;-77
2023/01/26 01:47:28;;;;;;;35.40;23.92;;;5.00;99.90;;;3.92;100.00;102113.75;4158286;28;20504;-77
2023/01/26 01:49:48;;;;;;;27.55;18.15;;;5.00;99.90;;;3.90;100.00;102113.84;4154306;28;20120;-77
2023/01/26 01:51:57;;;;;;;33.88;22.95;;;5.00;99.90;;;3.94;100.00;102109.31;4138355;28;20089;-77
2023/01/26 01:54:05;;;;;;;31.98;22.73;;;5.00;99.90;;;3.93;100.00;102118.06;4154246;28;20509;-77
2023/01/26 01:56:17;;;;;;;36.92;23.63;;;5.00;99.90;;;3.96;100.00;102119.66;4154075;28;20022;-77
2023/01/26 01:58:19;;;;;;;33.45;22.92;;;5.00;99.90;;;3.97;100.00;102121.38;4153975;28;20053;-77
2023/01/26 02:00:23;;;;;;;33.58;22.92;;;5.00;99.90;;;3.95;100.00;102105.75;4154133;28;20029;-77
2023/01/26 02:02:24;;;;;;;34.60;22.63;;;5.00;99.90;;;3.95;100.00;102120.59;4154097;28;20424;-77
2023/01/26 02:04:26;;;;;;;31.50;21.67;;;5.00;99.90;;;3.97;100.00;102122.22;4137729;28;20027;-77
2023/01/26 02:06:45;;;;;;;30.20;20.67;;;5.00;99.90;;;3.96;100.00;102120.53;4158408;28;20037;-77
2023/01/26 02:08:50;;;;;;;28.80;20.38;;;5.00;99.90;;;3.98;100.00;102113.44;4157752;28;20390;-77
2023/01/26 02:10:56;;;;;;;30.83;21.13;;;5.00;99.90;;;3.97;100.00;102124.81;4155070;28;20034;-77
2023/01/26 02:13:00;;;;;;;29.73;20.50;;;5.00;99.90;;;3.97;100.00;102117.00;4155153;28;20108;-77
2023/01/26 02:15:02;;;;;;;28.67;19.88;;;5.00;99.90;;;3.98;100.00;102116.03;4154883;28;20036;-77
2023/01/26 02:17:03;;;;;;;29.90;20.13;;;5.00;99.90;;;3.99;100.00;102117.75;4145604;28;20563;-77
2023/01/26 02:19:11;;;;;;;30.08;21.10;;;5.00;99.90;;;3.92;100.00;102101.56;4155626;28;20026;-77
2023/01/26 02:21:22;;;;;;;33.45;21.42;;;5.00;99.90;;;3.98;100.00;102113.44;4154935;28;20054;-77
2023/01/26 02:23:39;;;;;;;30.38;21.13;;;5.00;99.90;;;3.95;100.00;102104.91;4153855;28;20069;-77
2023/01/26 02:25:49;;;;;;;32.03;20.42;;;5.00;99.90;;;3.95;100.00;102111.00;4154568;28;20030;-77
2023/01/26 02:27:50;;;;;;;30.90;20.38;;;5.00;99.90;;;3.94;100.00;102101.50;4159625;28;20379;-77
2023/01/26 02:29:52;;;;;;;31.70;20.75;;;5.00;99.90;;;3.94;100.00;102103.25;4153442;28;20100;-77
2023/01/26 02:31:54;;;;;;;31.95;22.00;;;5.00;99.90;;;3.92;100.00;102098.09;4153519;28;20033;-77
2023/01/26 02:33:55;;;;;;;33.95;22.17;;;5.00;99.90;;;3.89;100.00;102104.31;4153709;28;20453;-77
2023/01/26 02:35:56;;;;;;;32.03;21.38;;;5.00;99.90;;;3.90;100.00;102102.56;4137201;28;20041;-77
2023/01/26 02:37:57;;;;;;;30.67;20.60;;;5.00;99.90;;;3.90;100.00;102105.19;4156797;28;20465;-77
2023/01/26 02:40:23;;;;;;;30.73;21.17;;;5.00;99.90;;;3.89;100.00;102095.66;4153546;28;20030;-77
2023/01/26 02:42:40;;;;;;;;;;;5.00;99.90;;;3.87;100.00;102097.50;4154102;28;20030;-77
2023/01/26 02:44:42;;;;;;;31.77;20.95;;;5.00;99.90;;;3.85;100.00;102097.56;4154321;28;19913;-77
2023/01/26 02:46:43;;;;;;;33.40;22.08;;;5.00;99.90;;;3.81;100.00;102103.03;4154524;28;20030;-77
2023/01/26 02:51:04;;;;;;;31.83;20.40;;;4.90;99.90;;;3.84;100.00;102108.94;4154722;28;20512;-77
2023/01/26 02:53:05;;;;;;;29.55;20.15;;;4.90;99.90;;;3.87;100.00;102103.56;4137081;28;20026;-77
2023/01/26 02:55:27;;;;;;;28.88;19.92;;;4.90;99.90;;;3.89;100.00;102099.09;4154503;28;20033;-77
2023/01/26 02:57:28;;;;;;;28.67;19.63;;;5.00;99.90;;;3.90;100.00;102092.13;4165106;28;20021;-77
2023/01/26 02:59:29;;;;;;;24.05;16.60;;;5.00;99.90;;;3.92;100.00;102092.88;4153260;28;20101;-77
2023/01/26 03:01:30;;;;;;;31.35;20.50;;;5.00;99.90;;;3.98;100.00;102094.31;4152996;28;20030;-77
2023/01/26 03:03:43;;;;;;;26.38;19.23;;;5.00;99.90;;;3.98;100.00;102092.56;4153318;28;20038;-77
2023/01/26 03:05:45;;;;;;;27.40;19.95;;;5.00;99.90;;;3.97;100.00;102097.88;4138200;28;20429;-77
2023/01/26 03:07:46;;;;;;;29.42;20.95;;;5.00;99.90;;;3.93;100.00;102102.41;4143034;28;20081;-77
2023/01/26 03:09:47;;;;;;;29.67;20.63;;;5.00;99.90;;;3.97;100.00;102103.94;4153257;28;20105;-76
2023/01/26 03:11:48;;;;;;;32.80;21.92;;;5.00;99.90;;;3.95;100.00;102097.94;4154392;28;20103;-77
2023/01/26 03:13:49;;;;;;;32.00;21.27;;;5.00;99.90;;;3.97;100.00;102098.72;4152732;28;20108;-77
2023/01/26 03:15:53;;;;;;;32.78;21.73;;;5.00;99.90;;;3.98;100.00;102092.56;4154649;28;20034;-76
2023/01/26 03:27:44;;;;;;;32.80;20.98;;;5.00;99.90;;;3.88;100.00;102060.88;4135782;28;20048;-77
2023/01/26 03:29:45;;;;;;;38.28;23.70;;;5.00;99.90;;;3.81;100.00;102072.56;4152503;28;20085;-77
2023/01/26 03:31:46;;;;;;;35.72;22.67;;;4.90;99.90;;;3.78;100.00;102071.88;4152495;28;20429;-77
2023/01/26 03:33:47;;;;;;;30.40;20.52;;;4.90;99.90;;;3.80;100.00;102060.44;4152753;28;20049;-77
2023/01/26 03:35:52;;;;;;;30.90;20.42;;;4.90;99.90;;;3.82;100.00;102060.38;4152943;28;20025;-77
2023/01/26 03:37:53;;;;;;;32.58;19.90;;;4.90;99.90;;;3.82;100.00;102062.97;4152515;28;20030;-76
2023/01/26 03:56:20;;;;;;;32.65;20.98;;;4.60;99.90;;;3.60;100.00;102078.06;4152794;28;20041;-76
2023/01/26 03:58:21;;;;;;;34.10;22.15;;;4.60;99.90;;;3.52;100.00;102080.22;4162264;28;20088;-76
2023/01/26 04:00:22;;;;;;;34.33;21.83;;;4.60;99.90;;;3.53;100.00;102087.09;4152081;28;20121;-76
2023/01/26 04:09:22;;;;;;;48.28;25.08;;;4.70;99.90;;;3.58;100.00;102100.78;4141165;28;20071;-76
2023/01/26 04:11:23;;;;;;;43.38;25.38;;;4.70;99.90;;;3.65;100.00;102105.59;4151973;28;20505;-77
2023/01/26 04:22:46;;;;;;;34.55;22.25;;;4.70;99.90;;;3.68;100.00;102071.50;4151936;28;20057;-76
2023/01/26 04:24:46;;;;;;;36.70;23.35;;;4.70;99.90;;;3.80;100.00;102080.47;4152839;28;20034;-76
2023/01/26 04:26:48;;;;;;;35.20;21.90;;;4.80;99.90;;;3.82;100.00;102074.25;4156981;28;20021;-76
2023/01/26 04:28:49;;;;;;;35.75;21.95;;;4.80;99.90;;;3.85;100.00;102068.03;4151556;28;20461;-76
2023/01/26 04:30:50;;;;;;;35.70;21.77;;;4.90;99.90;;;3.89;100.00;102061.72;4151903;28;20513;-76
2023/01/26 04:32:51;;;;;;;34.88;21.98;;;4.90;99.90;;;3.87;100.00;102055.75;4151660;28;20030;-77
2023/01/26 04:34:52;;;;;;;31.17;20.42;;;4.90;99.90;;;3.83;100.00;102046.38;4151693;28;20069;-76
2023/01/26 04:36:53;;;;;;;30.73;20.52;;;4.90;99.90;;;3.73;100.00;102043.41;4152877;28;20034;-76
2023/01/26 04:38:55;;;;;;;29.00;19.63;;;4.80;99.90;;;3.66;100.00;102042.06;4151799;28;20108;-76
2023/01/26 04:40:55;;;;;;;28.83;18.92;;;4.70;99.90;;;3.59;100.00;102039.81;4151728;28;20032;-76
2023/01/26 04:42:56;;;;;;;25.92;16.52;;;4.60;99.90;;;3.48;100.00;102029.97;4135007;28;20401;-76
2023/01/26 04:44:57;;;;;;;26.48;17.45;;;4.60;99.90;;;3.43;100.00;102033.72;4151628;28;20084;-76
2023/01/26 04:46:58;;;;;;;29.88;19.60;;;4.50;99.90;;;3.35;100.00;102031.50;4141135;28;20016;-76
2023/01/26 04:48:59;;;;;;;25.33;16.92;;;4.40;99.90;;;3.19;100.00;102028.84;4157486;28;20022;-76
2023/01/26 04:51:06;;;;;;;27.60;17.88;;;4.30;99.90;;;3.08;100.00;102028.53;4135112;28;20030;-76
2023/01/26 04:53:06;;;;;;;30.13;17.60;;;4.20;99.90;;;3.15;100.00;102040.34;4151605;28;20489;-77
2023/01/26 04:55:08;;;;;;;27.38;17.02;;;4.20;99.90;;;3.22;100.00;102039.13;4152706;28;20026;-76
2023/01/26 04:57:10;;;;;;;24.15;16.02;;;4.30;99.90;;;3.30;100.00;102044.78;4158743;28;20022;-76
2023/01/26 04:59:11;;;;;;;24.83;16.63;;;4.30;99.90;;;3.34;100.00;102033.25;4137094;28;20406;-76
2023/01/26 05:01:12;;;;;;;30.70;18.25;;;4.30;99.90;;;3.45;100.00;102034.50;4151244;28;20129;-76
2023/01/26 05:03:12;;;;;;;26.83;16.67;;;4.50;99.90;;;3.56;100.00;102042.59;4152591;28;20494;-76
2023/01/26 05:05:13;;;;;;;26.63;17.00;;;4.50;99.90;;;3.64;100.00;102045.66;4151261;28;20060;-76
2023/01/26 05:07:14;;;;;;;22.67;15.75;;;4.60;99.90;;;3.67;100.00;102046.38;4160235;28;20160;-76
2023/01/26 05:09:15;;;;;;;30.75;19.13;;;4.70;99.90;;;3.76;100.00;102048.47;4151985;28;20049;-76
2023/01/26 05:11:17;;;;;;;27.35;16.65;;;4.70;99.90;;;3.83;100.00;102054.19;4156743;28;20025;-76
2023/01/26 05:13:18;;;;;;;26.75;17.40;;;4.80;99.90;;;3.87;100.00;102046.16;4158308;28;20030;-76
2023/01/26 05:15:19;;;;;;;27.70;17.92;;;4.90;99.90;;;3.90;100.00;102045.13;4152779;28;20084;-76
2023/01/26 05:17:20;;;;;;;29.40;18.15;;;4.90;99.90;;;4.02;100.00;102048.84;4157811;28;20018;-76
2023/01/26 05:19:21;;;;;;;28.63;17.45;;;5.00;99.90;;;4.06;100.00;102055.59;4151080;28;20025;-76
2023/01/26 05:21:23;;;;;;;27.27;17.42;;;5.10;99.90;;;4.08;100.00;102049.38;4151108;28;20529;-76
2023/01/26 05:23:25;;;;;;;24.02;16.30;;;5.10;99.90;;;4.13;100.00;102046.50;4151193;28;20390;-76
2023/01/26 05:25:25;;;;;;;27.92;16.63;;;5.20;99.90;;;4.18;100.00;102041.91;4151894;28;20441;-77
2023/01/26 05:27:26;;;;;;;24.55;15.98;;;5.20;99.90;;;4.25;100.00;102044.06;4154091;28;20030;-77
2023/01/26 05:29:28;;;;;;;23.67;15.93;;;5.20;99.90;;;4.27;100.00;102044.00;4152299;28;20451;-77
2023/01/26 05:31:29;;;;;;;25.45;16.98;;;5.30;99.90;;;4.30;100.00;102047.28;4152243;28;20032;-77
2023/01/26 05:33:30;;;;;;;22.67;15.70;;;5.30;99.90;;;4.35;100.00;102039.19;4151121;28;20437;-77
2023/01/26 05:35:31;;;;;;;24.50;15.45;;;5.40;99.90;;;4.37;100.00;102048.63;4152408;28;20030;-77
2023/01/26 05:37:33;;;;;;;25.75;15.15;;;5.40;99.90;;;4.42;100.00;102045.78;4152670;28;20049;-77
2023/01/26 05:39:34;;;;;;;26.23;15.10;;;5.40;99.90;;;4.45;100.00;102041.19;4151088;28;20040;-77
2023/01/26 05:41:34;;;;;;;25.05;15.05;;;5.50;99.90;;;4.46;100.00;102044.66;4150964;28;20033;-77
2023/01/26 05:43:35;;;;;;;28.15;15.85;;;5.50;99.90;;;4.50;100.00;102045.34;4150740;28;20513;-77
2023/01/26 05:45:36;;;;;;;26.25;15.07;;;5.50;99.90;;;4.51;100.00;102039.19;4150557;28;20049;-77
2023/01/26 05:47:37;;;;;;;26.55;15.85;;;5.50;99.90;;;4.52;100.00;102048.69;4162442;28;20101;-77
2023/01/26 05:49:41;;;;;;;30.63;16.05;;;5.50;99.90;;;4.57;100.00;102038.84;4152839;28;20505;-77
2023/01/26 05:51:42;;;;;;;24.23;15.52;;;5.60;99.90;;;4.57;100.00;102041.47;4151096;28;20461;-77
2023/01/26 05:53:43;;;;;;;23.48;14.55;;;5.60;99.90;;;4.58;100.00;102043.13;4151074;28;20033;-77
2023/01/26 05:55:44;;;;;;;24.90;14.32;;;5.60;99.90;;;4.65;100.00;102044.47;4150906;28;20038;-77
2023/01/26 05:57:44;;;;;;;24.63;14.55;;;5.70;99.90;;;4.65;100.00;102041.88;4161207;28;20489;-77
2023/01/26 05:59:45;;;;;;;25.30;13.98;;;5.70;99.90;;;4.71;100.00;102050.22;4134408;28;20034;-77
2023/01/26 06:01:46;;;;;;;29.30;15.50;;;5.70;99.90;;;4.73;100.00;102044.88;4150800;28;20500;-77
2023/01/26 06:03:47;;;;;;;27.00;13.95;;;5.70;99.90;;;4.75;100.00;102051.72;4150840;28;20033;-77
2023/01/26 06:05:54;;;;;;;24.10;14.65;;;5.80;99.90;;;4.78;100.00;102053.34;4150507;28;20030;-77
2023/01/26 06:07:55;;;;;;;24.05;13.13;;;5.70;99.90;;;4.80;100.00;102048.84;4158920;28;20120;-77
2023/01/26 06:09:56;;;;;;;24.25;13.77;;;5.80;99.90;;;4.84;100.00;102050.34;4150922;28;20038;-77
2023/01/26 06:11:57;;;;;;;27.40;13.40;;;5.80;99.90;;;4.84;100.00;102047.72;4152021;28;20397;-77
2023/01/26 06:13:57;;;;;;;25.90;12.70;;;5.90;99.90;;;4.89;100.00;102049.16;4134145;28;20026;-77
2023/01/26 06:16:02;;;;;;;25.42;12.85;;;5.90;99.90;;;4.91;100.00;102056.91;4152045;28;20053;-77
2023/01/26 06:18:03;;;;;;;24.17;12.77;;;5.90;99.90;;;4.97;100.00;102057.41;4150821;28;20113;-77
2023/01/26 06:20:06;;;;;;;22.88;13.38;;;5.90;99.90;;;4.96;100.00;102060.09;4150793;28;20038;-76
2023/01/26 06:22:11;;;;;;;25.90;13.70;;;6.00;99.90;;;4.99;100.00;102066.00;4135818;28;20545;-77
2023/01/26 06:24:12;;;;;;;23.50;11.50;;;6.00;99.90;;;5.03;100.00;102064.91;4154805;28;20036;-76
2023/01/26 06:26:14;;;;;;;23.52;12.27;;;6.00;99.90;;;5.05;100.00;102064.81;4153726;28;20038;-77
2023/01/26 06:28:14;;;;;;;20.02;12.43;;;6.10;99.90;;;5.09;100.00;102065.47;4155947;28;20022;-76
2023/01/26 06:30:16;;;;;;;17.98;12.23;;;6.10;99.90;;;5.10;100.00;102069.78;4154769;28;20036;-77
2023/01/26 06:32:17;;;;;;;24.85;11.93;;;6.10;99.90;;;5.15;100.00;102072.97;4154841;28;20022;-77
2023/01/26 06:34:18;;;;;;;23.23;12.52;;;6.10;99.90;;;5.14;100.00;102074.72;4153610;28;20037;-77
2023/01/26 06:36:19;;;;;;;20.13;11.43;;;6.10;99.90;;;5.23;100.00;102079.44;4137425;28;20033;-77
2023/01/26 06:38:20;;;;;;;20.23;11.00;;;6.20;99.90;;;5.21;100.00;102075.22;4154813;28;20062;-77
2023/01/26 06:40:21;;;;;;;18.02;11.18;;;6.20;99.90;;;5.25;100.00;102088.06;4153629;28;20457;-77
2023/01/26 06:42:22;;;;;;;22.48;11.15;;;6.30;99.90;;;5.29;100.00;102081.69;4153547;28;20038;-77
2023/01/26 06:44:23;;;;;;;21.73;11.18;;;6.30;99.90;;;5.36;100.00;102082.19;4153190;28;20432;-77
2023/01/26 06:46:24;;;;;;;20.40;10.43;;;6.30;99.90;;;5.35;100.00;102089.19;4153400;28;20104;-77
2023/01/26 06:48:28;;;;;;;19.10;10.60;;;6.30;99.90;;;5.33;100.00;102091.06;4164768;28;20076;-77
2023/01/26 06:50:32;;;;;;;18.73;10.48;;;6.30;99.90;;;5.39;100.00;102089.84;4153086;28;20030;-77
2023/01/26 06:52:35;;;;;;;16.23;9.82;;;6.30;99.90;;;5.37;100.00;102087.34;4153331;28;20025;-77
2023/01/26 06:54:36;;;;;;;20.05;10.85;;;6.40;99.90;;;5.41;100.00;102088.81;4153153;28;20061;-77
2023/01/26 06:56:37;;;;;;;16.90;11.13;;;6.40;99.90;;;5.42;100.00;102082.66;4155532;28;20444;-77
2023/01/26 06:58:38;;;;;;;19.65;10.82;;;6.50;99.90;;;5.42;100.00;102089.66;4153069;28;20033;-77
2023/01/26 07:00:39;;;;;;;19.40;11.05;;;6.50;99.90;;;5.47;100.00;102093.69;4150163;28;20048;-77
2023/01/26 07:02:41;;;;;;;17.77;10.57;;;6.50;99.90;;;5.47;100.00;102093.69;4149209;28;20517;-77
2023/01/26 07:04:41;;;;;;;24.30;13.02;;;6.50;99.90;;;5.46;100.00;102085.97;4150905;28;20030;-77
2023/01/26 07:06:42;;;;;;;18.80;11.10;;;6.50;99.90;;;5.49;100.00;102096.25;4149550;28;20069;-77
2023/01/26 07:08:43;;;;;;;18.58;11.02;;;6.50;99.90;;;5.52;100.00;102086.44;4144029;28;20029;-77
2023/01/26 07:10:44;;;;;;;16.85;10.60;;;6.50;99.90;;;5.54;100.00;102087.19;4146674;28;20030;-77
2023/01/26 07:12:45;;;;;;;19.58;10.45;;;6.50;99.90;;;5.58;100.00;102103.56;4148593;28;20425;-77
2023/01/26 07:14:46;;;;;;;20.85;11.70;;;6.50;99.90;;;5.53;100.00;102101.19;4153275;28;20022;-78
2023/01/26 07:16:47;;;;;;;17.75;11.15;;;6.60;99.90;;;5.59;100.00;102103.44;4155805;28;20378;-78
2023/01/26 07:18:48;;;;;;;20.33;12.23;;;6.60;99.90;;;5.60;100.00;102109.53;4165518;28;20072;-78
2023/01/26 07:20:49;;;;;;;19.65;10.90;;;6.60;99.90;;;5.60;100.00;102112.16;4154102;28;20033;-78
2023/01/26 07:22:50;;;;;;;18.48;11.52;;;6.60;99.90;;;5.58;100.00;102104.38;4154054;28;20030;-77
2023/01/26 07:24:51;;;;;;;20.80;12.02;;;6.60;99.90;;;5.62;100.00;102112.03;4153625;28;20068;-77
2023/01/26 07:26:52;;;;;;;20.98;11.85;;;6.60;99.90;;;5.63;100.00;102106.72;4160248;28;20393;-77
2023/01/26 07:28:53;;;;;;;28.00;13.30;;;6.60;99.90;;;5.62;100.00;102117.28;4153795;28;20022;-77
2023/01/26 07:30:57;;;;;;;21.00;12.07;;;6.60;99.90;;;5.60;100.00;102112.16;4152778;28;20026;-77
2023/01/26 07:32:59;;;;;;;22.88;12.45;;;6.60;99.90;;;5.61;100.00;102110.38;4151716;28;20018;-78
2023/01/26 07:35:00;;;;;;;25.08;12.85;;;6.60;99.90;;;5.71;100.00;102121.97;4152418;28;20037;-78
2023/01/26 07:37:01;;;;;;;22.02;12.95;;;6.60;99.90;;;5.68;100.00;102112.53;4157704;28;20025;-78
2023/01/26 07:39:02;;;;;;;22.08;14.45;;;6.70;99.90;;;5.70;100.00;102115.06;4152595;28;20437;-78
2023/01/26 07:41:11;;;;;;;22.50;13.98;;;6.70;99.90;;;5.71;100.00;102120.19;4152760;28;20037;-78
2023/01/26 07:43:14;;;;;;;21.88;14.45;;;6.70;99.90;;;5.71;100.00;102124.59;4152230;28;20484;-78
2023/01/26 07:45:16;;;;;;;22.70;12.88;;;6.70;99.90;;;5.71;100.00;102129.81;4152487;28;20038;-78
2023/01/26 07:47:18;;;;;;;21.63;12.68;;;6.70;99.90;;;5.71;100.00;102124.59;4153912;28;20089;-78
2023/01/26 07:49:19;;;;;;;23.48;13.15;;;6.70;99.90;;;5.73;100.00;102127.97;4152546;28;20105;-78
2023/01/26 07:51:20;;;;;;;18.90;11.60;;;6.70;99.90;;;5.79;100.00;102130.22;4144503;28;20032;-77
2023/01/26 07:53:21;;;;;;;19.75;10.90;;;6.80;99.90;;;5.76;100.00;102120.78;4145139;28;20393;-77
2023/01/26 07:55:25;;;;;;;18.85;11.63;;;6.70;99.90;;;5.80;100.00;102121.41;4148817;28;20041;-77
2023/01/26 07:57:25;;;;;;;19.67;9.88;;;6.80;99.90;;;5.78;100.00;102126.75;4146352;28;20093;-77
2023/01/26 07:59:26;;;;;;;17.35;11.35;;;6.80;99.90;;;5.76;100.00;102123.41;4147627;28;20037;-77
2023/01/26 08:01:27;;;;;;;18.77;10.85;;;6.80;99.90;;;5.80;100.00;102131.91;4135894;28;20036;-78
2023/01/26 08:03:28;;;;;;;18.92;11.55;;;6.80;99.90;;;5.81;100.00;102128.34;4153445;28;20029;-78
2023/01/26 08:05:30;;;;;;;19.35;10.07;;;6.80;99.90;;;5.78;100.00;102133.78;4153353;28;20030;-77
2023/01/26 08:07:31;;;;;;;21.73;11.70;;;6.80;99.90;;;5.80;100.00;102134.50;4163710;28;20025;-78
2023/01/26 08:09:32;;;;;;;17.75;11.20;;;6.80;99.90;;;5.81;100.00;102136.22;4135832;28;20065;-77
2023/01/26 08:11:33;;;;;;;21.45;11.68;;;6.80;99.90;;;5.80;100.00;102144.97;4153392;28;20072;-77
2023/01/26 08:13:34;;;;;;;23.27;12.38;;;6.80;99.90;;;5.82;100.00;102149.22;4152686;28;20498;-77
2023/01/26 08:15:35;;;;;;;19.95;12.32;;;6.80;99.90;;;5.80;100.00;102155.47;4153059;28;20117;-75
2023/01/26 08:17:37;;;;;;;21.15;12.95;;;6.80;99.90;;;5.78;100.00;102152.94;4151905;28;20028;-76
2023/01/26 08:19:38;;;;;;;21.73;12.93;;;6.80;99.90;;;5.77;100.00;102153.88;4153234;28;20378;-76
2023/01/26 08:21:39;;;;;;;23.00;12.45;;;6.80;99.90;;;5.82;100.00;102158.84;4151841;28;20117;-76
2023/01/26 08:23:40;;;;;;;25.58;13.55;;;6.80;99.90;;;5.79;100.00;102161.66;4152995;28;20026;-76
2023/01/26 08:25:41;;;;;;;22.75;12.88;;;6.80;99.90;;;5.79;100.00;102162.50;4152714;28;20037;-76
2023/01/26 08:27:42;;;;;;;21.17;12.07;;;6.80;99.90;;;5.76;100.00;102160.06;4158640;28;20492;-76
2023/01/26 08:29:43;;;;;;;23.45;12.40;;;6.80;99.90;;;5.81;100.00;102167.63;4135305;28;20031;-76
2023/01/26 08:31:43;;;;;;;20.20;10.85;;;6.80;99.90;;;5.84;100.00;102170.06;4151726;28;20029;-76
2023/01/26 08:33:49;;;;;;;18.83;10.35;;;6.90;99.90;;;5.84;100.00;102175.31;4153019;28;20028;-76
2023/01/26 08:35:50;;;;;;;19.25;9.75;;;6.90;99.90;;;5.84;100.00;102188.41;4151791;28;20030;-76
2023/01/26 08:37:51;;;;;;;18.20;9.00;;;6.80;99.90;;;5.85;100.00;102177.88;4152744;28;20033;-75
2023/01/26 08:39:52;;;;;;;18.02;8.63;;;6.80;99.90;;;5.83;100.00;102184.94;4152146;28;20033;-75
2023/01/26 08:41:54;;;;;;;16.00;8.63;;;6.90;99.90;;;5.88;100.00;102187.31;4149916;28;20025;-75
2023/01/26 08:43:58;;;;;;;16.00;7.90;;;6.90;99.90;;;5.87;100.00;102196.94;4151396;28;20390;-75
2023/01/26 08:45:59;;;;;;;11.80;7.90;;;6.90;99.90;;;5.84;100.00;102193.63;4152686;28;20026;-75
2023/01/26 08:48:00;;;;;;;15.35;6.88;;;6.90;99.90;;;5.88;100.00;102196.03;4151443;28;20102;-75
2023/01/26 08:50:01;;;;;;;10.32;6.45;;;6.90;99.90;;;5.91;100.00;102208.09;4135175;28;20026;-75
2023/01/26 08:52:02;;;;;;;11.43;6.38;;;6.90;99.90;;;5.87;100.00;102188.25;4152865;28;20524;-75
2023/01/26 08:54:09;;;;;;;12.25;6.70;;;6.90;99.90;;;5.94;100.00;102207.91;4151561;28;20025;-75
2023/01/26 08:56:12;;;;;;;12.75;6.40;;;6.90;99.90;;;5.90;100.00;102215.09;4151155;28;20037;-75
2023/01/26 08:58:13;;;;;;;15.93;6.85;;;6.90;99.90;;;5.96;100.00;102213.91;4150959;28;20026;-75
2023/01/26 09:00:14;;;;;;;12.55;5.85;;;6.90;99.90;;;5.93;100.00;102216.69;4152668;28;20505;-75
2023/01/26 09:02:15;;;;;;;13.07;5.68;;;7.00;99.90;;;6.00;100.00;102210.19;4150871;28;20033;-75
2023/01/26 09:04:16;;;;;;;13.10;5.68;;;7.00;99.90;;;5.99;100.00;102216.34;4152382;28;20030;-75
2023/01/26 09:06:17;;;;;;;9.43;4.82;;;7.00;99.90;;;6.00;100.00;102223.28;4153086;28;20026;-75
2023/01/26 09:08:17;;;;;;;8.35;5.30;;;7.00;99.90;;;6.04;100.00;102225.59;4160591;28;20029;-75
2023/01/26 09:10:18;;;;;;;12.68;5.82;;;7.00;99.90;;;6.05;100.00;102215.97;4152582;28;20080;-75